createdAt,value
2023-04-18T00:00:58.714Z,32.6843
2023-04-18T00:02:02.663Z,32.6660
2023-04-18T00:03:06.802Z,32.6252
2023-04-18T00:04:11.045Z,32.6594
2023-04-18T00:05:15.275Z,32.7145
2023-04-18T00:06:19.172Z,32.6733
2023-04-18T00:07:23.086Z,32.6611
2023-04-18T00:08:26.981Z,32.6641
2023-04-18T00:09:30.925Z,32.6772
2023-04-18T00:10:35.049Z,32.7079
2023-04-18T00:11:38.956Z,32.7193
2023-04-18T00:12:43.312Z,32.7263
2023-04-18T00:13:47.241Z,32.7001
2023-04-18T00:14:51.124Z,32.6989
2023-04-18T00:15:55.054Z,32.7168
2023-04-18T00:16:58.988Z,32.7281
2023-04-18T00:18:03.328Z,32.7206
2023-04-18T00:19:07.280Z,32.7017
2023-04-18T00:20:11.450Z,32.6972
2023-04-18T00:21:15.331Z,32.7216
2023-04-18T00:22:19.247Z,32.7431
2023-04-18T00:23:23.155Z,32.7217
2023-04-18T00:24:27.054Z,32.7358
2023-04-18T00:25:30.972Z,32.7148
2023-04-18T00:26:34.872Z,32.7358
2023-04-18T00:27:39.049Z,32.7393
2023-04-18T00:28:42.926Z,32.7342
2023-04-18T00:29:47.072Z,32.7309
2023-04-18T00:30:50.988Z,32.7292
2023-04-18T00:31:54.874Z,32.7194
2023-04-18T00:32:58.807Z,32.7398
2023-04-18T00:34:02.716Z,32.7071
2023-04-18T00:35:06.947Z,32.7134
2023-04-18T00:36:10.849Z,32.6998
2023-04-18T00:37:14.771Z,32.7211
2023-04-18T00:38:18.720Z,32.7246
2023-04-18T00:39:22.617Z,32.6893
2023-04-18T00:40:26.781Z,32.7119
2023-04-18T00:41:30.709Z,32.7066
2023-04-18T00:42:34.913Z,32.7301
2023-04-18T00:43:38.989Z,32.7527
2023-04-18T00:44:42.899Z,32.7361
2023-04-18T00:45:46.828Z,32.7342
2023-04-18T00:46:50.722Z,32.7220
2023-04-18T00:47:54.656Z,32.7061
2023-04-18T00:48:58.586Z,32.7096
2023-04-18T00:50:02.492Z,32.7072
2023-04-18T00:51:06.400Z,32.6511
2023-04-18T00:52:10.305Z,32.7031
2023-04-18T00:53:14.215Z,32.7217
2023-04-18T00:54:18.125Z,32.7526
2023-04-18T00:55:22.247Z,32.7460
2023-04-18T00:56:26.167Z,32.7232
2023-04-18T00:57:30.286Z,32.7422
2023-04-18T00:58:34.196Z,32.7347
2023-04-18T00:59:38.107Z,32.7203
2023-04-18T01:00:42.017Z,32.7255
2023-04-18T01:01:45.926Z,32.7391
2023-04-18T01:02:50.302Z,32.7400
2023-04-18T01:03:54.318Z,32.7457
2023-04-18T01:04:58.520Z,32.7480
2023-04-18T01:06:02.413Z,32.7460
2023-04-18T01:07:06.369Z,32.7445
2023-04-18T01:08:10.238Z,32.7562
2023-04-18T01:09:14.161Z,32.7465
2023-04-18T01:10:18.384Z,32.7540
2023-04-18T01:11:22.275Z,32.7536
2023-04-18T01:12:26.186Z,32.7588
2023-04-18T01:13:30.081Z,32.7761
2023-04-18T01:14:33.987Z,32.7869
2023-04-18T01:15:37.948Z,32.7679
2023-04-18T01:16:41.814Z,32.8117
2023-04-18T01:17:45.729Z,32.7727
2023-04-18T01:18:49.657Z,32.7820
2023-04-18T01:19:53.817Z,32.7899
2023-04-18T01:20:57.730Z,32.7985
2023-04-18T01:22:01.622Z,32.7709
2023-04-18T01:23:05.528Z,32.7794
2023-04-18T01:24:09.429Z,32.7684
2023-04-18T01:25:13.334Z,32.7838
2023-04-18T01:26:17.269Z,32.7540
2023-04-18T01:27:21.442Z,32.7686
2023-04-18T01:28:25.337Z,32.8009
2023-04-18T01:29:29.480Z,32.8013
2023-04-18T01:30:33.387Z,32.7911
2023-04-18T01:31:37.346Z,32.7782
2023-04-18T01:32:41.293Z,32.7904
2023-04-18T01:33:45.187Z,32.8014
2023-04-18T01:34:49.114Z,32.8078
2023-04-18T01:35:53.029Z,32.7740
2023-04-18T01:36:56.922Z,32.7727
2023-04-18T01:38:00.827Z,32.7929
2023-04-18T01:39:04.741Z,32.7641
2023-04-18T01:40:08.979Z,32.8021
2023-04-18T01:41:12.859Z,32.8298
2023-04-18T01:42:16.773Z,32.8208
2023-04-18T01:43:20.684Z,32.8125
2023-04-18T01:44:24.594Z,32.8262
2023-04-18T01:45:28.511Z,32.8276
2023-04-18T01:46:32.473Z,32.8183
2023-04-18T01:47:36.558Z,32.8255
2023-04-18T01:48:40.483Z,32.8209
2023-04-18T01:49:44.374Z,32.8229
2023-04-18T01:50:48.287Z,32.8304
2023-04-18T01:51:52.181Z,32.8506
2023-04-18T01:52:56.107Z,32.8199
2023-04-18T01:54:00.020Z,32.8267
2023-04-18T01:55:04.146Z,32.7919
2023-04-18T01:56:08.070Z,32.8078
2023-04-18T01:57:12.005Z,32.7867
2023-04-18T01:58:15.909Z,32.7985
2023-04-18T01:59:19.810Z,32.8348
2023-04-18T02:00:23.934Z,32.8192
2023-04-18T02:01:27.888Z,32.8655
2023-04-18T02:02:32.087Z,32.8849
2023-04-18T02:03:36.259Z,32.8358
2023-04-18T02:04:40.236Z,32.8223
2023-04-18T02:05:44.171Z,32.8251
2023-04-18T02:06:48.079Z,32.8283
2023-04-18T02:07:52.008Z,32.8013
2023-04-18T02:08:55.934Z,32.7834
2023-04-18T02:10:00.071Z,32.8045
2023-04-18T02:11:03.934Z,32.8150
2023-04-18T02:12:08.084Z,32.8189
2023-04-18T02:13:11.989Z,32.8224
2023-04-18T02:14:15.928Z,32.8431
2023-04-18T02:15:19.888Z,32.8467
2023-04-18T02:16:23.831Z,32.8855
2023-04-18T02:17:27.740Z,32.8486
2023-04-18T02:18:31.607Z,32.8590
2023-04-18T02:19:35.765Z,32.8350
2023-04-18T02:20:39.651Z,32.8349
2023-04-18T02:21:43.557Z,32.8234
2023-04-18T02:22:47.466Z,32.8957
2023-04-18T02:23:51.383Z,32.9025
2023-04-18T02:24:55.532Z,32.8861
2023-04-18T02:25:59.436Z,32.8584
2023-04-18T02:27:03.329Z,32.8765
2023-04-18T02:28:07.229Z,32.8779
2023-04-18T02:29:11.134Z,32.9009
2023-04-18T02:30:15.029Z,32.8649
2023-04-18T02:31:18.931Z,32.8495
2023-04-18T02:32:22.850Z,32.8545
2023-04-18T02:33:26.745Z,32.8452
2023-04-18T02:34:30.956Z,32.8466
2023-04-18T02:35:34.829Z,32.8269
2023-04-18T02:36:38.711Z,32.8276
2023-04-18T02:37:42.608Z,32.8626
2023-04-18T02:38:46.493Z,32.8487
2023-04-18T02:39:50.396Z,32.8406
2023-04-18T02:40:54.308Z,32.8348
2023-04-18T02:41:58.436Z,32.8876
2023-04-18T02:43:02.332Z,32.8875
2023-04-18T02:44:06.237Z,32.8658
2023-04-18T02:45:10.377Z,32.8649
2023-04-18T02:46:14.323Z,32.8622
2023-04-18T02:47:18.207Z,32.8547
2023-04-18T02:48:22.114Z,32.8569
2023-04-18T02:49:25.979Z,32.8660
2023-04-18T02:50:29.887Z,32.9015
2023-04-18T02:51:33.814Z,32.9099
2023-04-18T02:52:37.722Z,32.8744
2023-04-18T02:53:41.658Z,32.8534
2023-04-18T02:54:45.741Z,32.8659
2023-04-18T02:55:49.626Z,32.8629
2023-04-18T02:56:53.740Z,32.8761
2023-04-18T02:57:57.624Z,32.8767
2023-04-18T02:59:01.519Z,32.8789
2023-04-18T03:00:05.381Z,32.8735
2023-04-18T03:01:09.313Z,32.8705
2023-04-18T03:02:13.466Z,32.8751
2023-04-18T03:03:17.391Z,32.8587
2023-04-18T03:04:21.310Z,32.8952
2023-04-18T03:05:25.187Z,32.8726
2023-04-18T03:06:29.074Z,32.8795
2023-04-18T03:07:33.009Z,32.8452
2023-04-18T03:08:36.920Z,32.8562
2023-04-18T03:09:41.040Z,32.9067
2023-04-18T03:10:44.920Z,32.9068
2023-04-18T03:11:48.914Z,32.8986
2023-04-18T03:12:52.804Z,32.9277
2023-04-18T03:13:56.722Z,32.9399
2023-04-18T03:15:00.624Z,32.9670
2023-04-18T03:16:04.629Z,32.9666
2023-04-18T03:17:08.761Z,32.9746
2023-04-18T03:18:12.681Z,32.9755
2023-04-18T03:19:16.831Z,32.9552
2023-04-18T03:20:20.733Z,32.9478
2023-04-18T03:21:24.624Z,32.9398
2023-04-18T03:22:28.525Z,32.9437
2023-04-18T03:23:32.407Z,33.0020
2023-04-18T03:24:36.521Z,32.9976
2023-04-18T03:25:40.402Z,32.9985
2023-04-18T03:26:44.524Z,32.9876
2023-04-18T03:27:48.407Z,33.0093
2023-04-18T03:28:52.301Z,32.9843
2023-04-18T03:29:56.185Z,33.0036
2023-04-18T03:31:00.144Z,32.9643
2023-04-18T03:32:04.055Z,32.9552
2023-04-18T03:33:07.953Z,32.9611
2023-04-18T03:34:12.120Z,32.9782
2023-04-18T03:35:16.217Z,32.9751
2023-04-18T03:36:20.138Z,32.9467
2023-04-18T03:37:24.046Z,32.9605
2023-04-18T03:38:27.944Z,32.9522
2023-04-18T03:39:32.078Z,32.9046
2023-04-18T03:40:35.966Z,32.9100
2023-04-18T03:41:39.835Z,32.9121
2023-04-18T03:42:43.724Z,32.9238
2023-04-18T03:43:47.594Z,32.9252
2023-04-18T03:44:51.498Z,32.9247
2023-04-18T03:45:55.411Z,32.8715
2023-04-18T03:46:59.614Z,32.8510
2023-04-18T03:48:03.502Z,32.8682
2023-04-18T03:49:07.560Z,32.8803
2023-04-18T03:50:11.439Z,32.8884
2023-04-18T03:51:15.316Z,32.8997
2023-04-18T03:52:19.198Z,32.8767
2023-04-18T03:53:23.081Z,32.8898
2023-04-18T03:54:27.281Z,32.8815
2023-04-18T03:55:31.172Z,32.8637
2023-04-18T03:56:35.793Z,32.8476
2023-04-18T03:57:41.275Z,32.8451
2023-04-18T03:58:39.983Z,32.8723
2023-04-18T03:59:45.567Z,32.8524
2023-04-18T04:00:45.274Z,32.8409
2023-04-18T04:01:49.488Z,32.8463
2023-04-18T04:02:53.520Z,32.8387
2023-04-18T04:03:57.559Z,32.8115
2023-04-18T04:05:01.519Z,32.8074
2023-04-18T04:06:05.445Z,32.8042
2023-04-18T04:07:09.571Z,32.7936
2023-04-18T04:08:13.475Z,32.7511
2023-04-18T04:09:17.374Z,32.7358
2023-04-18T04:10:21.282Z,32.6936
2023-04-18T04:11:25.197Z,32.6895
2023-04-18T04:12:29.156Z,32.6944
2023-04-18T04:13:33.036Z,32.7079
2023-04-18T04:14:37.035Z,32.7681
2023-04-18T04:15:40.928Z,32.8059
2023-04-18T04:16:45.027Z,32.8716
2023-04-18T04:17:48.976Z,32.9226
2023-04-18T04:18:52.865Z,33.0039
2023-04-18T04:19:56.748Z,33.0658
2023-04-18T04:21:00.660Z,33.0769
2023-04-18T04:22:04.558Z,33.0828
2023-04-18T04:23:08.467Z,33.1155
2023-04-18T04:24:12.534Z,33.1421
2023-04-18T04:25:16.546Z,33.1858
2023-04-18T04:26:20.460Z,33.2512
2023-04-18T04:27:24.383Z,33.3365
2023-04-18T04:28:28.272Z,33.3661
2023-04-18T04:29:32.423Z,33.4003
2023-04-18T04:30:36.313Z,33.3666
2023-04-18T04:31:40.472Z,33.3914
2023-04-18T04:32:44.375Z,33.4375
2023-04-18T04:33:48.242Z,33.4236
2023-04-18T04:34:52.121Z,33.4560
2023-04-18T04:35:56.024Z,33.4503
2023-04-18T04:36:59.914Z,33.4474
2023-04-18T04:38:03.813Z,33.4483
2023-04-18T04:39:07.938Z,33.4999
2023-04-18T04:40:11.847Z,33.5000
2023-04-18T04:41:15.709Z,33.4922
2023-04-18T04:42:19.588Z,33.4792
2023-04-18T04:43:23.488Z,33.4663
2023-04-18T04:44:27.700Z,33.4761
2023-04-18T04:45:31.612Z,33.4824
2023-04-18T04:46:35.773Z,33.4951
2023-04-18T04:47:39.739Z,33.5365
2023-04-18T04:48:43.649Z,33.5515
2023-04-18T04:49:47.493Z,33.5798
2023-04-18T04:50:51.376Z,33.5851
2023-04-18T04:51:55.285Z,33.5766
2023-04-18T04:52:59.185Z,33.5782
2023-04-18T04:54:03.109Z,33.6161
2023-04-18T04:55:06.988Z,33.6112
2023-04-18T04:56:10.859Z,33.6282
2023-04-18T04:57:14.768Z,33.6113
2023-04-18T04:58:18.685Z,33.6391
2023-04-18T04:59:22.989Z,33.6553
2023-04-18T05:00:26.910Z,33.6732
2023-04-18T05:01:31.061Z,33.7002
2023-04-18T05:02:35.050Z,33.6918
2023-04-18T05:03:39.438Z,33.6876
2023-04-18T05:04:43.431Z,33.6819
2023-04-18T05:05:47.275Z,33.6905
2023-04-18T05:06:51.264Z,33.7187
2023-04-18T05:07:55.153Z,33.7013
2023-04-18T05:08:59.043Z,33.7181
2023-04-18T05:10:02.969Z,33.7329
2023-04-18T05:11:06.863Z,33.7550
2023-04-18T05:12:11.012Z,33.7613
2023-04-18T05:13:14.915Z,33.8259
2023-04-18T05:14:19.025Z,33.8754
2023-04-18T05:15:22.914Z,33.8805
2023-04-18T05:16:26.872Z,33.8247
2023-04-18T05:17:30.789Z,33.7451
2023-04-18T05:18:35.092Z,33.7830
2023-04-18T05:19:39.019Z,33.9008
2023-04-18T05:20:42.901Z,33.9223
2023-04-18T05:21:46.779Z,33.8515
2023-04-18T05:22:50.686Z,33.9492
2023-04-18T05:23:54.867Z,34.0048
2023-04-18T05:24:58.749Z,34.0478
2023-04-18T05:26:02.678Z,34.0623
2023-04-18T05:27:06.592Z,34.1044
2023-04-18T05:28:10.471Z,34.0945
2023-04-18T05:29:14.347Z,34.1143
2023-04-18T05:30:18.264Z,34.1193
2023-04-18T05:31:22.201Z,34.1122
2023-04-18T05:32:26.057Z,34.1577
2023-04-18T05:33:29.953Z,34.1759
2023-04-18T05:34:33.839Z,34.1955
2023-04-18T05:35:37.745Z,34.2292
2023-04-18T05:36:41.658Z,34.2401
2023-04-18T05:37:45.541Z,34.2514
2023-04-18T05:38:49.456Z,34.2744
2023-04-18T05:39:53.343Z,34.2569
2023-04-18T05:40:57.221Z,34.2216
2023-04-18T05:42:01.367Z,34.2027
2023-04-18T05:43:05.269Z,34.1944
2023-04-18T05:44:09.186Z,34.1590
2023-04-18T05:45:13.086Z,34.1431
2023-04-18T05:46:17.300Z,34.2066
2023-04-18T05:47:21.275Z,34.1995
2023-04-18T05:48:25.188Z,34.2256
2023-04-18T05:49:29.063Z,34.2103
2023-04-18T05:50:32.958Z,34.1792
2023-04-18T05:51:37.083Z,34.2002
2023-04-18T05:52:40.984Z,34.1677
2023-04-18T05:53:44.855Z,34.1849
2023-04-18T05:54:48.757Z,34.1900
2023-04-18T05:55:52.635Z,34.2234
2023-04-18T05:56:56.528Z,34.2086
2023-04-18T05:58:00.437Z,34.2253
2023-04-18T05:59:04.587Z,34.1892
2023-04-18T06:00:08.476Z,34.1712
2023-04-18T06:01:12.407Z,34.2163
2023-04-18T06:02:16.379Z,34.1613
2023-04-18T06:03:20.600Z,34.1831
2023-04-18T06:04:24.670Z,34.2553
2023-04-18T06:05:28.899Z,34.2658
2023-04-18T06:06:33.239Z,34.2876
2023-04-18T06:07:37.132Z,34.3595
2023-04-18T06:08:41.055Z,34.3725
2023-04-18T06:09:44.970Z,34.2728
2023-04-18T06:10:48.885Z,34.2873
2023-04-18T06:11:52.828Z,34.3367
2023-04-18T06:12:56.704Z,34.3657
2023-04-18T06:14:00.863Z,34.3854
2023-04-18T06:15:04.762Z,34.4404
2023-04-18T06:16:08.878Z,34.4393
2023-04-18T06:17:12.859Z,34.4254
2023-04-18T06:18:16.738Z,34.4175
2023-04-18T06:19:20.651Z,34.4485
2023-04-18T06:20:24.544Z,34.4622
2023-04-18T06:21:28.436Z,34.2756
2023-04-18T06:22:32.326Z,34.3413
2023-04-18T06:23:36.454Z,34.4105
2023-04-18T06:24:40.345Z,34.4148
2023-04-18T06:25:44.225Z,34.4742
2023-04-18T06:26:48.391Z,34.6110
2023-04-18T06:27:52.270Z,34.5161
2023-04-18T06:28:56.189Z,34.5990
2023-04-18T06:30:00.165Z,34.5884
2023-04-18T06:31:04.081Z,34.6634
2023-04-18T06:32:07.964Z,34.8602
2023-04-18T06:33:11.821Z,35.0984
2023-04-18T06:34:15.905Z,35.2076
2023-04-18T06:35:19.968Z,35.2169
2023-04-18T06:36:24.102Z,35.0461
2023-04-18T06:37:27.995Z,34.9195
2023-04-18T06:38:31.875Z,35.0229
2023-04-18T06:39:35.799Z,35.0241
2023-04-18T06:40:39.738Z,34.9078
2023-04-18T06:41:43.649Z,35.0651
2023-04-18T06:42:47.563Z,35.2006
2023-04-18T06:44:02.851Z,35.1688
2023-04-18T06:44:55.947Z,35.1811
2023-04-18T06:45:59.944Z,35.0723
2023-04-18T06:47:03.845Z,34.9295
2023-04-18T06:48:07.820Z,35.1224
2023-04-18T06:49:11.694Z,35.2220
2023-04-18T06:50:15.579Z,35.3261
2023-04-18T06:51:19.483Z,35.2657
2023-04-18T06:52:23.948Z,34.9436
2023-04-18T06:53:27.818Z,34.9435
2023-04-18T06:54:31.718Z,35.1490
2023-04-18T06:55:35.629Z,34.9510
2023-04-18T06:56:39.565Z,34.7076
2023-04-18T06:57:43.463Z,34.9199
2023-04-18T06:58:47.370Z,35.0938
2023-04-18T06:59:51.261Z,35.1981
2023-04-18T07:00:55.190Z,35.2964
2023-04-18T07:01:59.087Z,35.2866
2023-04-18T07:03:03.101Z,35.2520
2023-04-18T07:04:07.166Z,35.3868
2023-04-18T07:05:11.106Z,35.5754
2023-04-18T07:06:14.995Z,35.6848
2023-04-18T07:07:18.934Z,35.6501
2023-04-18T07:08:22.906Z,35.7618
2023-04-18T07:09:26.860Z,35.5317
2023-04-18T07:10:30.774Z,35.4350
2023-04-18T07:11:34.926Z,35.3659
2023-04-18T07:12:38.833Z,35.4436
2023-04-18T07:13:42.973Z,35.6295
2023-04-18T07:14:46.918Z,35.4029
2023-04-18T07:15:50.813Z,35.2201
2023-04-18T07:16:54.774Z,35.3404
2023-04-18T07:17:58.803Z,35.4328
2023-04-18T07:19:02.704Z,35.5453
2023-04-18T07:20:06.619Z,35.5871
2023-04-18T07:21:10.610Z,35.6220
2023-04-18T07:22:14.531Z,35.5002
2023-04-18T07:23:18.456Z,35.3685
2023-04-18T07:24:22.392Z,35.5025
2023-04-18T07:25:26.310Z,35.6214
2023-04-18T07:26:30.241Z,35.7714
2023-04-18T07:27:34.151Z,35.7084
2023-04-18T07:28:38.401Z,35.6857
2023-04-18T07:29:42.285Z,35.6963
2023-04-18T07:30:46.294Z,35.6689
2023-04-18T07:31:50.216Z,35.6772
2023-04-18T07:32:54.189Z,35.4324
2023-04-18T07:33:58.130Z,35.6799
2023-04-18T07:35:02.157Z,35.7796
2023-04-18T07:36:06.088Z,35.4476
2023-04-18T07:37:10.015Z,35.6356
2023-04-18T07:38:13.963Z,35.8671
2023-04-18T07:39:17.858Z,35.9192
2023-04-18T07:40:21.837Z,35.7512
2023-04-18T07:41:25.730Z,35.7821
2023-04-18T07:42:29.642Z,35.7736
2023-04-18T07:43:33.546Z,35.7602
2023-04-18T07:44:37.509Z,35.7211
2023-04-18T07:45:41.408Z,35.6514
2023-04-18T07:46:45.411Z,35.6312
2023-04-18T07:47:49.388Z,35.7820
2023-04-18T07:48:53.282Z,35.8859
2023-04-18T07:49:57.269Z,35.8129
2023-04-18T07:51:01.187Z,35.6607
2023-04-18T07:52:05.123Z,35.5677
2023-04-18T07:53:09.292Z,35.5467
2023-04-18T07:54:13.242Z,35.6126
2023-04-18T07:55:17.170Z,35.6771
2023-04-18T07:56:21.097Z,35.7360
2023-04-18T07:57:25.019Z,35.6216
2023-04-18T07:58:28.956Z,35.7000
2023-04-18T07:59:32.871Z,35.6959
2023-04-18T08:00:36.827Z,35.4315
2023-04-18T08:01:40.799Z,35.4801
2023-04-18T08:02:44.814Z,35.6801
2023-04-18T08:03:48.868Z,35.6150
2023-04-18T08:04:53.054Z,35.6721
2023-04-18T08:05:57.126Z,35.6689
2023-04-18T08:07:01.070Z,35.7000
2023-04-18T08:08:05.014Z,35.6822
2023-04-18T08:09:08.919Z,35.6094
2023-04-18T08:10:13.107Z,35.4879
2023-04-18T08:11:17.010Z,35.4112
2023-04-18T08:12:20.940Z,35.4936
2023-04-18T08:13:24.873Z,35.5387
2023-04-18T08:14:28.848Z,35.5808
2023-04-18T08:15:33.050Z,35.5448
2023-04-18T08:16:37.002Z,35.5502
2023-04-18T08:17:40.979Z,35.5030
2023-04-18T08:18:44.906Z,35.4182
2023-04-18T08:19:48.859Z,35.4657
2023-04-18T08:20:52.817Z,35.5724
2023-04-18T08:21:56.886Z,35.6110
2023-04-18T08:23:07.323Z,35.5771
2023-04-18T08:24:05.406Z,35.5306
2023-04-18T08:25:09.505Z,35.5450
2023-04-18T08:26:13.426Z,35.7075
2023-04-18T08:27:17.367Z,35.6639
2023-04-18T08:28:21.536Z,35.5977
2023-04-18T08:29:25.446Z,35.6246
2023-04-18T08:30:29.429Z,35.5401
2023-04-18T08:31:33.436Z,35.4298
2023-04-18T08:32:37.507Z,35.3956
2023-04-18T08:33:41.453Z,35.4095
2023-04-18T08:34:45.372Z,35.4122
2023-04-18T08:35:49.334Z,35.3631
2023-04-18T08:36:53.312Z,35.3161
2023-04-18T08:37:57.311Z,35.4174
2023-04-18T08:39:01.236Z,35.3818
2023-04-18T08:40:05.207Z,35.4062
2023-04-18T08:41:09.169Z,35.2699
2023-04-18T08:42:13.082Z,35.3124
2023-04-18T08:43:17.048Z,35.2834
2023-04-18T08:44:21.046Z,35.3472
2023-04-18T08:45:25.016Z,35.2890
2023-04-18T08:46:29.261Z,35.2655
2023-04-18T08:47:33.189Z,35.2540
2023-04-18T08:48:37.228Z,35.2684
2023-04-18T08:49:41.161Z,35.2871
2023-04-18T08:50:45.185Z,35.2446
2023-04-18T08:51:49.057Z,35.2362
2023-04-18T08:52:52.993Z,35.2898
2023-04-18T08:53:56.925Z,35.3144
2023-04-18T08:55:01.006Z,35.2978
2023-04-18T08:56:04.935Z,35.2872
2023-04-18T08:57:09.009Z,35.3462
2023-04-18T08:58:13.015Z,35.3261
2023-04-18T08:59:16.993Z,35.3719
2023-04-18T09:00:21.005Z,35.3471
2023-04-18T09:01:24.966Z,35.2992
2023-04-18T09:02:28.920Z,35.2423
2023-04-18T09:03:32.870Z,35.2077
2023-04-18T09:04:36.959Z,35.2037
2023-04-18T09:05:41.186Z,35.1552
2023-04-18T09:06:46.050Z,35.1603
2023-04-18T09:07:49.951Z,35.1348
2023-04-18T09:08:53.845Z,35.1901
2023-04-18T09:09:53.969Z,35.1249
2023-04-18T09:10:57.860Z,35.0553
2023-04-18T09:12:01.790Z,35.0138
2023-04-18T09:13:05.699Z,34.9823
2023-04-18T09:14:09.629Z,35.0239
2023-04-18T09:15:13.606Z,35.0110
2023-04-18T09:16:17.561Z,34.9949
2023-04-18T09:17:21.522Z,35.0150
2023-04-18T09:18:25.715Z,35.0632
2023-04-18T09:19:29.644Z,34.9859
2023-04-18T09:20:33.585Z,35.0087
2023-04-18T09:21:37.492Z,35.1007
2023-04-18T09:22:41.406Z,35.0293
2023-04-18T09:23:45.336Z,34.9697
2023-04-18T09:24:49.224Z,34.9773
2023-04-18T09:25:53.154Z,35.0558
2023-04-18T09:26:57.098Z,35.0217
2023-04-18T09:28:01.273Z,35.0784
2023-04-18T09:29:05.358Z,35.0180
2023-04-18T09:30:09.272Z,34.9213
2023-04-18T09:31:13.306Z,34.9335
2023-04-18T09:32:17.314Z,34.9373
2023-04-18T09:33:21.211Z,35.0154
2023-04-18T09:34:25.213Z,35.0410
2023-04-18T09:35:29.103Z,35.0484
2023-04-18T09:36:33.105Z,35.0063
2023-04-18T09:37:37.010Z,35.0332
2023-04-18T09:38:41.112Z,35.0527
2023-04-18T09:39:45.146Z,35.0653
2023-04-18T09:40:49.081Z,34.9284
2023-04-18T09:41:52.990Z,35.0225
2023-04-18T09:42:56.961Z,34.9656
2023-04-18T09:44:00.875Z,34.8963
2023-04-18T09:45:05.121Z,34.8442
2023-04-18T09:46:09.079Z,34.9213
2023-04-18T09:47:13.080Z,34.8976
2023-04-18T09:48:16.973Z,34.9467
2023-04-18T09:49:20.884Z,34.9094
2023-04-18T09:50:24.810Z,34.9140
2023-04-18T09:51:28.783Z,34.9524
2023-04-18T09:52:32.859Z,34.9145
2023-04-18T09:53:36.786Z,34.6901
2023-04-18T09:54:40.666Z,34.5774
2023-04-18T09:55:44.596Z,34.6133
2023-04-18T09:56:48.523Z,34.6875
2023-04-18T09:57:52.704Z,34.6666
2023-04-18T09:58:56.660Z,34.7357
2023-04-18T10:00:00.592Z,34.8058
2023-04-18T10:01:04.513Z,34.7478
2023-04-18T10:02:08.582Z,34.6204
2023-04-18T10:03:12.603Z,34.6092
2023-04-18T10:04:16.971Z,34.5872
2023-04-18T10:05:21.434Z,34.6196
2023-04-18T10:06:25.413Z,34.6926
2023-04-18T10:07:29.306Z,34.7466
2023-04-18T10:08:33.209Z,34.6989
2023-04-18T10:09:37.126Z,34.6881
2023-04-18T10:10:41.096Z,34.8535
2023-04-18T10:11:44.988Z,35.0061
2023-04-18T10:12:48.989Z,35.0756
2023-04-18T10:13:53.035Z,35.3001
2023-04-18T10:14:56.970Z,35.3424
2023-04-18T10:16:00.884Z,35.2947
2023-04-18T10:17:04.767Z,35.3331
2023-04-18T10:18:08.727Z,35.2732
2023-04-18T10:19:13.109Z,35.2778
2023-04-18T10:20:17.226Z,35.3470
2023-04-18T10:21:21.181Z,35.3923
2023-04-18T10:22:25.116Z,35.4193
2023-04-18T10:23:29.055Z,35.4281
2023-04-18T10:24:33.092Z,35.4280
2023-04-18T10:25:37.110Z,35.3977
2023-04-18T10:26:41.061Z,35.3387
2023-04-18T10:27:45.335Z,35.4073
2023-04-18T10:28:49.295Z,35.4721
2023-04-18T10:29:53.275Z,35.6247
2023-04-18T10:30:57.404Z,35.7286
2023-04-18T10:32:01.393Z,35.6912
2023-04-18T10:33:08.494Z,35.7611
2023-04-18T10:34:09.847Z,35.8014
2023-04-18T10:35:13.832Z,35.9083
2023-04-18T10:36:17.805Z,35.8864
2023-04-18T10:37:21.808Z,35.9049
2023-04-18T10:38:25.834Z,35.9207
2023-04-18T10:39:29.777Z,35.8444
2023-04-18T10:40:33.781Z,35.6416
2023-04-18T10:41:37.754Z,35.7501
2023-04-18T10:42:41.748Z,35.7852
2023-04-18T10:43:45.648Z,35.6594
2023-04-18T10:44:49.897Z,35.6188
2023-04-18T10:45:53.917Z,35.5915
2023-04-18T10:46:57.864Z,35.6566
2023-04-18T10:47:58.343Z,35.7093
2023-04-18T10:49:02.248Z,35.5851
2023-04-18T10:50:06.968Z,35.3109
2023-04-18T10:51:11.075Z,35.4307
2023-04-18T10:52:15.037Z,35.5724
2023-04-18T10:53:18.986Z,35.6461
2023-04-18T10:54:22.975Z,35.4135
2023-04-18T10:55:27.103Z,35.4448
2023-04-18T10:56:31.115Z,35.4287
2023-04-18T10:57:35.247Z,35.3719
2023-04-18T10:58:39.147Z,35.1866
2023-04-18T10:59:43.102Z,35.1387
2023-04-18T11:00:47.121Z,35.1148
2023-04-18T11:01:51.026Z,35.1499
2023-04-18T11:02:55.190Z,35.1957
2023-04-18T11:03:59.297Z,35.2659
2023-04-18T11:05:03.299Z,35.4523
2023-04-18T11:06:07.239Z,35.6598
2023-04-18T11:07:11.788Z,35.6106
2023-04-18T11:08:15.838Z,35.5799
2023-04-18T11:09:19.795Z,35.5972
2023-04-18T11:10:23.902Z,35.4394
2023-04-18T11:11:27.828Z,35.3616
2023-04-18T11:12:31.782Z,35.5712
2023-04-18T11:13:35.771Z,35.5439
2023-04-18T11:14:39.824Z,35.5405
2023-04-18T11:15:43.783Z,35.5747
2023-04-18T11:16:47.858Z,35.6881
2023-04-18T11:17:51.907Z,35.6133
2023-04-18T11:18:55.888Z,35.6448
2023-04-18T11:19:59.927Z,35.6355
2023-04-18T11:21:03.951Z,35.6642
2023-04-18T11:22:07.906Z,35.4842
2023-04-18T11:23:11.944Z,35.4472
2023-04-18T11:24:16.039Z,35.5408
2023-04-18T11:25:20.147Z,35.6898
2023-04-18T11:26:24.217Z,35.7352
2023-04-18T11:27:28.163Z,35.7615
2023-04-18T11:28:32.167Z,35.8635
2023-04-18T11:29:36.468Z,36.0948
2023-04-18T11:30:40.361Z,36.1732
2023-04-18T11:31:44.378Z,36.1336
2023-04-18T11:32:48.354Z,36.1374
2023-04-18T11:33:52.287Z,36.1659
2023-04-18T11:34:56.268Z,36.2460
2023-04-18T11:36:00.288Z,36.2069
2023-04-18T11:37:04.213Z,36.0303
2023-04-18T11:38:08.157Z,35.9380
2023-04-18T11:39:12.117Z,35.7492
2023-04-18T11:40:16.277Z,35.6515
2023-04-18T11:41:20.242Z,35.7737
2023-04-18T11:42:24.457Z,35.8121
2023-04-18T11:43:28.352Z,35.6581
2023-04-18T11:44:33.764Z,35.5489
2023-04-18T11:45:34.096Z,35.4195
2023-04-18T11:46:38.368Z,35.4752
2023-04-18T11:47:42.579Z,35.4523
2023-04-18T11:48:46.499Z,35.3691
2023-04-18T11:49:50.509Z,35.4115
2023-04-18T11:50:54.465Z,35.4900
2023-04-18T11:51:58.627Z,35.4476
2023-04-18T11:53:02.537Z,35.4266
2023-04-18T11:54:06.465Z,35.3439
2023-04-18T11:55:10.660Z,35.2997
2023-04-18T11:56:14.585Z,35.3600
2023-04-18T11:57:18.523Z,35.5125
2023-04-18T11:58:22.461Z,35.5138
2023-04-18T11:59:26.400Z,35.3874
2023-04-18T12:00:30.383Z,35.2764
2023-04-18T12:01:34.281Z,35.1700
2023-04-18T12:02:38.472Z,35.1485
2023-04-18T12:03:42.669Z,35.2548
2023-04-18T12:04:47.037Z,35.2577
2023-04-18T12:05:51.370Z,35.2760
2023-04-18T12:06:55.393Z,35.2315
2023-04-18T12:07:59.291Z,35.2852
2023-04-18T12:09:03.193Z,35.3121
2023-04-18T12:10:07.370Z,35.3168
2023-04-18T12:11:11.320Z,35.3065
2023-04-18T12:12:15.275Z,35.3044
2023-04-18T12:13:19.238Z,35.3733
2023-04-18T12:14:23.292Z,35.3359
2023-04-18T12:15:27.304Z,35.1847
2023-04-18T12:16:31.295Z,35.1037
2023-04-18T12:17:35.275Z,35.0299
2023-04-18T12:18:39.271Z,35.0676
2023-04-18T12:19:43.132Z,35.1294
2023-04-18T12:20:47.105Z,35.1629
2023-04-18T12:21:51.050Z,35.1401
2023-04-18T12:22:55.052Z,35.1168
2023-04-18T12:23:58.979Z,35.0278
2023-04-18T12:25:02.885Z,35.0358
2023-04-18T12:26:06.816Z,35.0320
2023-04-18T12:27:11.025Z,34.8562
2023-04-18T12:28:14.975Z,35.0012
2023-04-18T12:29:19.292Z,35.1416
2023-04-18T12:30:23.187Z,35.0843
2023-04-18T12:31:27.214Z,35.0438
2023-04-18T12:32:31.237Z,34.9969
2023-04-18T12:33:35.238Z,34.9771
2023-04-18T12:34:39.197Z,35.0672
2023-04-18T12:35:43.116Z,35.0292
2023-04-18T12:36:47.346Z,34.8928
2023-04-18T12:37:51.245Z,35.0440
2023-04-18T12:38:55.201Z,34.9945
2023-04-18T12:39:59.163Z,34.9008
2023-04-18T12:41:03.112Z,34.7168
2023-04-18T12:42:07.041Z,34.7368
2023-04-18T12:43:11.001Z,34.6549
2023-04-18T12:44:15.135Z,34.7118
2023-04-18T12:45:19.105Z,34.6339
2023-04-18T12:46:23.129Z,34.5256
2023-04-18T12:47:27.130Z,34.6034
2023-04-18T12:48:31.057Z,34.6830
2023-04-18T12:49:34.982Z,34.6160
2023-04-18T12:50:38.915Z,34.5136
2023-04-18T12:51:42.796Z,34.5428
2023-04-18T12:52:46.732Z,34.5042
2023-04-18T12:53:50.642Z,34.4561